Time;durP1;ratioP1;P1;durP2;ratioP2;P2;SDS_P1;SDS_P2;PMS_P1;PMS_P2;Temp;Humidity;BMP_temperature;BMP_pressure;BME280_temperature;BME280_humidity;BME280_pressure;Samples;Min_cycle;Max_cycle;Signal;HPM_P1;HPM_P2
2022/10/26 00:01:13;;;;;;;5.40;1.80;;;15.60;99.90;;;;;;5110744;28;20200;-32
2022/10/26 00:03:42;;;;;;;6.13;1.80;;;15.70;99.90;;;;;;5110794;28;20198;-31
2022/10/26 00:06:10;;;;;;;4.10;1.90;;;15.70;99.90;;;;;;5110785;28;20724;-31
2022/10/26 00:08:38;;;;;;;5.87;2.20;;;15.60;99.90;;;;;;5112061;28;20309;-31
2022/10/26 00:11:08;;;;;;;4.13;1.70;;;15.60;99.90;;;;;;5112018;28;20564;-31
2022/10/26 00:13:37;;;;;;;3.83;2.03;;;15.70;99.90;;;;;;5111877;28;20306;-31
2022/10/26 00:16:22;;;;;;;6.23;2.00;;;15.70;99.90;;;;;;5110526;28;20213;-32
2022/10/26 00:18:50;;;;;;;6.83;1.73;;;15.70;99.90;;;;;;5111630;28;20254;-31
2022/10/26 00:21:17;;;;;;;5.83;2.20;;;15.70;99.90;;;;;;5111803;28;20194;-31
2022/10/26 00:23:45;;;;;;;4.07;2.10;;;15.70;99.90;;;;;;5111636;28;20205;-31
2022/10/26 00:26:12;;;;;;;3.80;1.80;;;15.70;99.90;;;;;;5111748;28;20575;-31
2022/10/26 00:28:42;;;;;;;4.83;2.17;;;15.70;99.90;;;;;;5111562;28;20309;-31
2022/10/26 00:31:13;;;;;;;3.97;1.83;;;15.70;99.90;;;;;;5111936;28;20229;-31
2022/10/26 00:33:41;;;;;;;4.13;1.80;;;15.70;99.90;;;;;;5110117;28;20217;-31
2022/10/26 00:36:08;;;;;;;3.83;1.87;;;15.70;99.90;;;;;;5110783;28;20554;-32
2022/10/26 00:38:36;;;;;;;5.27;2.00;;;15.70;99.90;;;;;;5111288;28;20246;-31
2022/10/26 00:41:04;;;;;;;4.33;2.07;;;15.70;99.90;;;;;;5111375;28;20625;-30
2022/10/26 00:43:33;;;;;;;8.17;2.90;;;15.80;99.90;;;;;;5109165;28;20286;-31
2022/10/26 00:46:02;;;;;;;5.13;2.60;;;15.80;99.90;;;;;;5111671;28;20202;-31
2022/10/26 00:48:37;;;;;;;5.20;2.67;;;15.80;99.90;;;;;;5111280;28;20206;-31
2022/10/26 00:51:31;;;;;;;5.53;2.30;;;15.80;99.90;;;;;;5111550;27;20244;-31
2022/10/26 00:54:04;;;;;;;6.50;2.80;;;15.80;99.90;;;;;;5111119;28;20224;-31
2022/10/26 00:56:33;;;;;;;4.97;2.30;;;15.80;99.90;;;;;;5111485;28;20277;-32
2022/10/26 00:59:04;;;;;;;6.20;2.93;;;15.80;99.90;;;;;;5095591;28;20258;-30
2022/10/26 01:01:36;;;;;;;6.97;2.90;;;15.80;99.90;;;;;;5093171;28;20191;-31
2022/10/26 01:04:04;;;;;;;7.67;2.97;;;15.80;99.90;;;;;;5110926;28;20594;-31
2022/10/26 01:06:34;;;;;;;6.67;3.10;;;15.90;99.90;;;;;;5105249;28;20290;-32
2022/10/26 01:09:04;;;;;;;7.63;3.00;;;15.80;99.90;;;;;;5102525;28;20210;-31
2022/10/26 01:11:31;;;;;;;5.07;2.73;;;15.90;99.90;;;;;;5110830;28;20202;-30
2022/10/26 01:14:01;;;;;;;6.87;3.17;;;15.90;99.90;;;;;;5110571;28;20198;-31
2022/10/26 01:16:53;;;;;;;6.67;2.70;;;15.90;99.90;;;;;;5095845;28;20228;-31
2022/10/26 01:19:30;;;;;;;3.80;2.60;;;15.90;99.90;;;;;;5110403;28;20245;-31
2022/10/26 01:22:08;;;;;;;4.40;2.67;;;15.90;99.90;;;;;;5110460;28;20657;-31
2022/10/26 01:24:50;;;;;;;4.07;2.60;;;15.90;99.90;;;;;;5110329;28;20186;-31
2022/10/26 01:27:33;;;;;;;7.00;2.70;;;15.90;99.90;;;;;;5110437;28;20701;-32
2022/10/26 01:30:15;;;;;;;4.47;2.70;;;15.90;99.90;;;;;;5110332;28;20617;-31
2022/10/26 01:32:51;;;;;;;5.60;3.00;;;15.90;99.90;;;;;;5110408;28;20217;-32
2022/10/26 01:35:22;;;;;;;3.70;2.33;;;15.90;99.90;;;;;;5110412;28;20191;-31
2022/10/26 01:38:13;;;;;;;4.53;2.93;;;15.90;99.90;;;;;;5110179;28;20657;-30
2022/10/26 01:40:53;;;;;;;4.93;2.50;;;15.90;99.90;;;;;;5110728;28;20185;-33
2022/10/26 01:43:23;;;;;;;6.23;2.70;;;15.90;99.90;;;;;;5110541;28;20301;-32
2022/10/26 01:45:52;;;;;;;4.00;2.70;;;15.90;99.90;;;;;;5110151;28;20217;-31
2022/10/26 01:48:21;;;;;;;5.57;2.70;;;15.90;99.90;;;;;;5110031;28;20205;-30
2022/10/26 01:50:52;;;;;;;5.70;2.50;;;15.90;99.90;;;;;;5110269;28;20317;-31
2022/10/26 01:53:20;;;;;;;6.43;2.80;;;15.90;99.90;;;;;;5110022;28;20215;-31
2022/10/26 01:55:52;;;;;;;7.53;2.80;;;15.90;99.90;;;;;;5110404;27;20557;-31
2022/10/26 01:58:57;;;;;;;3.67;2.17;;;15.90;99.90;;;;;;5109867;28;20268;-32
2022/10/26 02:01:33;;;;;;;4.00;1.93;;;15.90;99.90;;;;;;5100886;28;20644;-31
2022/10/26 02:04:15;;;;;;;5.33;2.30;;;15.90;99.90;;;;;;5110053;28;20225;-32
2022/10/26 02:07:02;;;;;;;5.40;2.50;;;15.90;99.90;;;;;;5109796;28;20733;-31
2022/10/26 02:10:02;;;;;;;4.90;2.23;;;15.90;99.90;;;;;;5108420;28;20206;-31
2022/10/26 02:12:40;;;;;;;4.20;2.40;;;15.90;99.90;;;;;;5102394;28;20209;-31
2022/10/26 02:15:35;;;;;;;4.03;2.60;;;15.90;99.90;;;;;;5109637;28;20194;-31
2022/10/26 02:18:40;;;;;;;4.20;2.30;;;15.90;99.90;;;;;;5107400;28;20222;-31
2022/10/26 02:21:16;;;;;;;4.30;2.13;;;15.90;99.90;;;;;;5108493;28;20604;-32
2022/10/26 02:23:46;;;;;;;5.60;2.60;;;15.90;99.90;;;;;;5109580;28;20198;-31
2022/10/26 02:26:18;;;;;;;6.10;2.50;;;15.90;99.90;;;;;;5109691;28;20240;-32
2022/10/26 02:28:49;;;;;;;5.13;2.60;;;15.90;99.90;;;;;;5109428;28;20305;-31
2022/10/26 02:31:18;;;;;;;6.90;2.40;;;15.90;99.90;;;;;;5109669;28;20673;-31
2022/10/26 02:33:51;;;;;;;8.17;2.17;;;15.90;99.90;;;;;;5109414;28;20616;-31
2022/10/26 02:36:28;;;;;;;4.77;2.00;;;15.90;99.90;;;;;;5109387;28;20232;-31
2022/10/26 02:38:57;;;;;;;6.33;2.30;;;15.90;99.90;;;;;;5109464;28;20525;-31
2022/10/26 02:41:27;;;;;;;5.63;2.10;;;15.90;99.90;;;;;;5109746;28;20220;-31
2022/10/26 02:44:13;;;;;;;3.80;2.07;;;15.90;99.90;;;;;;5109645;28;20201;-32
2022/10/26 02:46:42;;;;;;;6.07;2.77;;;15.90;99.90;;;;;;5109279;28;20290;-31
2022/10/26 02:49:10;;;;;;;2.77;1.67;;;15.90;99.90;;;;;;5109369;28;20202;-31
2022/10/26 02:51:59;;;;;;;4.83;2.20;;;15.90;99.90;;;;;;5109214;28;20198;-31
2022/10/26 02:54:45;;;;;;;6.33;1.97;;;16.00;99.90;;;;;;5109298;28;20623;-32
2022/10/26 02:57:26;;;;;;;3.43;2.23;;;16.00;99.90;;;;;;5109231;28;20285;-32
2022/10/26 02:59:54;;;;;;;4.93;1.90;;;15.90;99.90;;;;;;5109403;28;20714;-31
2022/10/26 03:02:22;;;;;;;7.40;1.87;;;15.90;99.90;;;;;;5109067;28;20230;-31
2022/10/26 03:04:50;;;;;;;4.10;1.50;;;16.00;99.90;;;;;;5109127;28;20222;-31
2022/10/26 03:07:22;;;;;;;4.23;1.87;;;16.00;99.90;;;;;;5111114;28;20631;-31
2022/10/26 03:09:50;;;;;;;3.80;1.70;;;15.90;99.90;;;;;;5113177;28;20288;-32
2022/10/26 03:12:17;;;;;;;2.33;1.60;;;16.00;99.90;;;;;;5113235;28;20717;-31
2022/10/26 03:14:47;;;;;;;3.20;1.70;;;16.00;99.90;;;;;;5113085;28;20252;-31
2022/10/26 03:17:14;;;;;;;4.03;1.50;;;16.00;99.90;;;;;;5113328;28;20206;-32
2022/10/26 03:19:41;;;;;;;1.90;1.50;;;16.00;99.90;;;;;;5112816;27;20237;-32
2022/10/26 03:22:08;;;;;;;6.40;1.50;;;16.00;99.90;;;;;;5112925;28;20217;-31
2022/10/26 03:24:36;;;;;;;2.80;1.60;;;16.00;99.90;;;;;;5112883;28;20235;-31
2022/10/26 03:27:03;;;;;;;3.60;1.50;;;16.00;99.90;;;;;;5112937;28;20209;-31
2022/10/26 03:29:30;;;;;;;3.20;1.70;;;16.00;99.90;;;;;;5112848;28;20210;-32
2022/10/26 03:31:57;;;;;;;2.37;1.40;;;16.00;99.90;;;;;;5111504;28;20202;-31
2022/10/26 03:34:27;;;;;;;3.83;1.57;;;16.10;99.90;;;;;;5112724;28;20195;-31
2022/10/26 03:36:54;;;;;;;3.73;1.43;;;16.10;99.90;;;;;;5112653;28;20751;-31
2022/10/26 03:39:21;;;;;;;5.23;1.40;;;16.00;99.90;;;;;;5111288;28;20222;-32
2022/10/26 03:41:48;;;;;;;5.63;1.40;;;16.00;99.90;;;;;;5112612;28;20656;-31
2022/10/26 03:44:16;;;;;;;1.73;1.10;;;16.10;99.90;;;;;;5112627;28;20690;-31
2022/10/26 03:46:43;;;;;;;4.43;1.53;;;16.10;99.90;;;;;;5112500;28;20207;-31
2022/10/26 03:49:12;;;;;;;3.70;1.27;;;16.10;99.90;;;;;;5112876;28;20289;-31
2022/10/26 03:51:40;;;;;;;2.17;1.30;;;16.10;99.90;;;;;;5112374;28;20198;-31
2022/10/26 03:54:07;;;;;;;2.63;1.30;;;16.20;99.90;;;;;;5112691;27;20218;-31
2022/10/26 03:56:34;;;;;;;1.43;1.00;;;16.20;99.90;;;;;;5112408;28;20743;-32
2022/10/26 03:59:01;;;;;;;2.67;1.23;;;16.10;99.90;;;;;;5112249;28;20226;-31
2022/10/26 04:01:29;;;;;;;3.10;1.33;;;16.20;99.90;;;;;;5112223;28;20488;-31
2022/10/26 04:03:56;;;;;;;2.95;0.95;;;16.20;99.90;;;;;;5112292;28;20202;-31
2022/10/26 04:06:23;;;;;;;2.72;1.00;;;16.20;99.90;;;;;;5110865;28;20225;-31
2022/10/26 04:08:57;;;;;;;4.18;1.00;;;16.20;99.90;;;;;;5112176;27;20198;-31
2022/10/26 04:11:26;;;;;;;0.97;0.80;;;16.30;99.90;;;;;;5112225;28;20210;-31
2022/10/26 04:13:54;;;;;;;1.75;1.00;;;16.30;99.90;;;;;;5110777;28;20194;-30
2022/10/26 04:16:21;;;;;;;3.08;1.23;;;16.30;99.90;;;;;;5112097;28;20204;-31
2022/10/26 04:18:48;;;;;;;1.93;0.90;;;16.30;99.90;;;;;;5110489;28;20249;-31
2022/10/26 04:21:16;;;;;;;1.48;0.73;;;16.30;99.90;;;;;;5111979;28;20210;-31
2022/10/26 04:23:43;;;;;;;1.40;1.23;;;16.30;99.90;;;;;;5111923;28;20786;-31
2022/10/26 04:26:12;;;;;;;2.80;0.83;;;16.40;99.90;;;;;;5110442;28;20213;-30
2022/10/26 04:28:39;;;;;;;2.17;0.83;;;16.40;99.90;;;;;;5111795;28;20293;-31
2022/10/26 04:31:07;;;;;;;3.73;1.03;;;16.40;99.90;;;;;;5112056;28;20569;-31
2022/10/26 04:33:34;;;;;;;6.20;1.30;;;16.40;99.90;;;;;;5111508;28;20247;-31
2022/10/26 04:36:02;;;;;;;2.10;1.10;;;16.50;99.90;;;;;;5110249;28;20206;-31
2022/10/26 04:38:29;;;;;;;4.13;1.20;;;16.50;99.90;;;;;;5111302;28;20710;-31
2022/10/26 04:40:57;;;;;;;2.97;1.10;;;16.50;99.90;;;;;;5111459;28;20229;-31
2022/10/26 04:43:26;;;;;;;2.23;1.17;;;16.50;99.90;;;;;;5111665;28;20225;-30
2022/10/26 04:45:57;;;;;;;3.10;1.13;;;16.60;99.90;;;;;;5111245;28;20300;-31
2022/10/26 04:48:24;;;;;;;2.50;1.20;;;16.60;99.90;;;;;;5111415;28;20183;-32
2022/10/26 04:50:58;;;;;;;1.73;1.37;;;16.60;99.90;;;;;;5111513;28;20201;-30
2022/10/26 04:53:26;;;;;;;3.30;1.23;;;16.60;99.90;;;;;;5109818;28;20458;-31
2022/10/26 04:55:58;;;;;;;3.33;1.23;;;16.70;99.90;;;;;;5109726;28;20256;-31
2022/10/26 04:58:27;;;;;;;3.90;1.30;;;16.70;99.90;;;;;;5109825;28;20194;-31
2022/10/26 05:00:54;;;;;;;5.13;1.50;;;16.70;99.90;;;;;;5111361;28;20596;-31
2022/10/26 05:03:22;;;;;;;3.40;1.27;;;16.70;99.90;;;;;;5111161;28;20778;-32
2022/10/26 05:05:49;;;;;;;2.40;1.30;;;16.80;99.90;;;;;;5111169;28;20368;-32
2022/10/26 05:08:16;;;;;;;3.83;1.70;;;16.80;99.90;;;;;;5110945;28;20209;-31
2022/10/26 05:10:48;;;;;;;2.07;1.03;;;16.80;99.90;;;;;;5110857;28;20209;-31
2022/10/26 05:13:18;;;;;;;1.75;1.13;;;16.90;99.90;;;;;;5109413;28;20179;-31
2022/10/26 05:15:45;;;;;;;1.77;1.30;;;16.90;99.90;;;;;;5111053;28;20194;-32
2022/10/26 05:18:15;;;;;;;3.70;1.40;;;16.90;99.90;;;;;;5110881;28;20201;-32
2022/10/26 05:20:43;;;;;;;3.47;1.40;;;16.90;99.90;;;;;;5109019;28;20249;-32
2022/10/26 05:23:11;;;;;;;3.47;1.30;;;17.00;99.90;;;;;;5109161;28;20198;-32
2022/10/26 05:25:38;;;;;;;2.97;1.70;;;17.00;99.90;;;;;;5110543;28;20194;-32
2022/10/26 05:28:10;;;;;;;4.50;1.40;;;17.00;99.90;;;;;;5110589;28;20915;-32
2022/10/26 05:30:38;;;;;;;1.47;1.17;;;17.00;99.90;;;;;;5110204;28;20281;-32
2022/10/26 05:33:07;;;;;;;4.70;1.27;;;17.00;99.90;;;;;;5110766;28;20230;-31
2022/10/26 05:35:34;;;;;;;2.03;1.00;;;17.00;99.90;;;;;;5110257;28;20208;-31
2022/10/26 05:38:21;;;;;;;3.37;1.30;;;17.00;99.90;;;;;;5110318;28;20214;-32
2022/10/26 05:40:50;;;;;;;1.88;1.08;;;17.10;99.90;;;;;;5109145;28;20194;-31
2022/10/26 05:43:19;;;;;;;2.83;1.20;;;17.10;99.90;;;;;;5110319;28;20194;-32
2022/10/26 05:45:48;;;;;;;1.20;1.10;;;17.10;99.90;;;;;;5110037;28;20239;-32
2022/10/26 05:48:18;;;;;;;1.80;1.30;;;17.10;99.90;;;;;;5110095;28;20187;-32
2022/10/26 05:50:45;;;;;;;3.03;1.15;;;17.10;99.90;;;;;;5110137;28;20198;-32
2022/10/26 05:53:12;;;;;;;3.70;1.37;;;17.20;99.90;;;;;;5109973;28;20669;-32
2022/10/26 05:55:43;;;;;;;3.13;1.37;;;17.10;99.90;;;;;;5110304;28;20298;-32
2022/10/26 05:58:11;;;;;;;3.90;1.30;;;17.10;99.90;;;;;;5109905;28;20259;-32
2022/10/26 06:01:10;;;;;;;3.73;1.57;;;17.10;99.90;;;;;;5109609;28;20318;-32
2022/10/26 06:04:01;;;;;;;3.20;1.33;;;17.10;99.90;;;;;;5110061;28;20206;-32
2022/10/26 06:06:43;;;;;;;4.00;1.20;;;17.10;99.90;;;;;;5109807;28;21011;-32
2022/10/26 06:09:12;;;;;;;2.97;1.30;;;17.10;99.90;;;;;;5109948;28;20202;-32
2022/10/26 06:11:40;;;;;;;5.60;1.60;;;17.00;99.90;;;;;;5109896;28;20333;-31
2022/10/26 06:14:08;;;;;;;7.40;1.77;;;17.10;99.90;;;;;;5108610;28;20214;-32
2022/10/26 06:17:00;;;;;;;2.90;1.60;;;17.00;99.90;;;;;;5109574;28;20610;-32
2022/10/26 06:19:33;;;;;;;3.43;1.57;;;17.00;99.90;;;;;;5109345;28;20300;-32
2022/10/26 06:22:20;;;;;;;4.77;1.50;;;17.00;99.90;;;;;;5109606;28;20677;-32
2022/10/26 06:25:11;;;;;;;5.50;2.00;;;16.90;99.90;;;;;;5108023;28;20190;-33
2022/10/26 06:27:58;;;;;;;4.63;1.50;;;16.90;99.90;;;;;;5098869;28;20202;-32
2022/10/26 06:30:25;;;;;;;7.50;1.77;;;16.90;99.90;;;;;;5109078;28;20194;-32
2022/10/26 06:32:54;;;;;;;3.60;1.70;;;16.90;99.90;;;;;;5109150;28;20232;-32
2022/10/26 06:36:08;;;;;;;3.17;1.60;;;16.90;99.90;;;;;;5109058;28;20186;-32
2022/10/26 06:38:38;;;;;;;5.50;1.97;;;16.90;99.90;;;;;;5103995;28;20237;-32
2022/10/26 06:41:06;;;;;;;6.07;2.27;;;16.80;99.90;;;;;;5108352;28;20285;-32
2022/10/26 06:43:34;;;;;;;3.97;1.70;;;16.80;99.90;;;;;;5109082;28;20293;-31
2022/10/26 06:46:31;;;;;;;3.23;1.40;;;16.90;99.90;;;;;;5108932;28;20681;-32
2022/10/26 06:49:24;;;;;;;3.37;1.40;;;16.90;99.90;;;;;;5108929;28;20206;-31
2022/10/26 06:52:02;;;;;;;3.40;1.73;;;16.90;99.90;;;;;;5097136;28;20229;-30
2022/10/26 06:54:41;;;;;;;5.10;1.77;;;16.90;99.90;;;;;;5107479;28;20288;-32
2022/10/26 06:57:14;;;;;;;7.70;2.47;;;16.90;99.90;;;;;;5108991;28;20198;-30
2022/10/26 07:00:13;;;;;;;8.73;2.53;;;16.90;99.90;;;;;;5107342;28;20563;-31
2022/10/26 07:02:41;;;;;;;6.93;2.03;;;16.90;99.90;;;;;;5108660;28;20202;-32
2022/10/26 07:05:11;;;;;;;5.07;1.93;;;16.90;99.90;;;;;;5108808;28;20270;-31
2022/10/26 07:07:46;;;;;;;7.50;2.40;;;16.90;99.90;;;;;;5108661;28;20221;-31
2022/10/26 07:10:14;;;;;;;3.00;1.60;;;17.00;99.90;;;;;;5108938;28;20407;-31
2022/10/26 07:12:45;;;;;;;5.87;1.87;;;17.00;99.90;;;;;;5107361;28;20202;-31
2022/10/26 07:15:12;;;;;;;3.57;2.07;;;17.00;99.90;;;;;;5108870;28;20561;-30
2022/10/26 07:17:44;;;;;;;4.47;1.50;;;17.00;99.90;;;;;;5108702;28;20577;-30
2022/10/26 07:20:13;;;;;;;3.77;1.90;;;17.00;99.90;;;;;;5108416;28;20743;-31
2022/10/26 07:22:41;;;;;;;2.33;1.60;;;17.10;99.90;;;;;;5108461;28;20206;-31
2022/10/26 07:25:11;;;;;;;5.50;1.57;;;17.10;99.90;;;;;;5107745;28;20205;-31
2022/10/26 07:27:38;;;;;;;6.70;2.07;;;17.10;99.90;;;;;;5107143;28;20702;-30
2022/10/26 07:30:06;;;;;;;5.73;2.20;;;17.10;99.90;;;;;;5107273;28;20285;-30
2022/10/26 07:32:34;;;;;;;3.30;1.60;;;17.10;99.90;;;;;;5108718;28;20213;-31
2022/10/26 07:35:04;;;;;;;3.13;1.90;;;17.10;99.90;;;;;;5107339;28;20206;-32
2022/10/26 07:37:33;;;;;;;3.00;1.70;;;17.20;99.90;;;;;;5108680;28;20206;-31
2022/10/26 07:40:01;;;;;;;4.30;1.70;;;17.20;99.90;;;;;;5108853;28;20221;-31
2022/10/26 07:42:35;;;;;;;4.70;2.00;;;17.20;99.90;;;;;;5107199;28;20293;-32
2022/10/26 07:45:03;;;;;;;6.83;1.70;;;17.20;99.90;;;;;;5108437;28;20198;-31
2022/10/26 07:47:31;;;;;;;3.67;1.70;;;17.30;99.90;;;;;;5107202;28;20216;-32
2022/10/26 07:49:58;;;;;;;3.97;1.87;;;17.30;99.90;;;;;;5108860;28;20293;-32
2022/10/26 07:52:25;;;;;;;6.40;1.87;;;17.30;99.90;;;;;;5109910;28;20218;-32
2022/10/26 07:54:53;;;;;;;4.50;1.67;;;17.30;99.90;;;;;;5112278;28;20781;-32
2022/10/26 07:57:20;;;;;;;4.27;1.77;;;17.40;99.90;;;;;;5112348;28;20710;-32
2022/10/26 07:59:48;;;;;;;3.53;2.00;;;17.40;99.90;;;;;;5112086;28;20218;-32
2022/10/26 08:02:15;;;;;;;5.73;2.20;;;17.40;99.90;;;;;;5112200;28;20210;-32
2022/10/26 08:04:43;;;;;;;5.87;2.10;;;17.40;99.90;;;;;;5112211;28;20598;-32
2022/10/26 08:07:10;;;;;;;4.60;2.17;;;17.50;99.90;;;;;;5112446;28;20608;-32
2022/10/26 08:09:38;;;;;;;6.50;2.13;;;17.50;99.90;;;;;;5112062;28;20222;-32
2022/10/26 08:12:06;;;;;;;3.23;1.77;;;17.50;99.90;;;;;;5112190;28;20247;-32
2022/10/26 08:14:33;;;;;;;4.20;2.03;;;17.50;99.90;;;;;;5111460;28;20205;-32
2022/10/26 08:17:01;;;;;;;3.83;1.93;;;17.60;99.90;;;;;;5111606;28;20290;-32
2022/10/26 08:19:28;;;;;;;5.33;2.10;;;17.60;99.90;;;;;;5111249;28;20261;-32
2022/10/26 08:21:56;;;;;;;4.27;1.90;;;17.60;99.90;;;;;;5111737;28;20668;-32
2022/10/26 08:24:24;;;;;;;4.70;1.87;;;17.70;99.90;;;;;;5109924;28;20684;-32
2022/10/26 08:26:51;;;;;;;5.93;2.17;;;17.70;99.90;;;;;;5111589;28;20702;-32
2022/10/26 08:29:19;;;;;;;10.00;2.10;;;17.70;99.90;;;;;;5111282;28;20657;-32
2022/10/26 08:31:47;;;;;;;5.13;1.90;;;17.80;99.90;;;;;;5111268;28;20243;-32
2022/10/26 08:34:14;;;;;;;9.93;2.10;;;17.80;99.90;;;;;;5111071;28;20276;-32
2022/10/26 08:36:42;;;;;;;6.93;2.47;;;17.90;99.90;;;;;;5111655;28;20402;-31
2022/10/26 08:39:15;;;;;;;7.47;2.10;;;17.90;99.90;;;;;;5111665;28;20578;-32
2022/10/26 08:41:44;;;;;;;3.97;1.97;;;17.90;99.90;;;;;;5111048;28;20737;-33
2022/10/26 08:44:38;;;;;;;7.37;2.10;;;18.00;99.90;;;;;;5109560;28;20271;-32
2022/10/26 08:47:11;;;;;;;6.83;1.90;;;18.10;99.90;;;;;;5111163;28;20535;-33
2022/10/26 08:49:59;;;;;;;4.27;2.00;;;18.10;99.90;;;;;;5111067;28;20253;-32
2022/10/26 08:52:52;;;;;;;5.63;1.83;;;18.10;99.90;;;;;;5111137;28;20648;-33
2022/10/26 08:55:25;;;;;;;4.53;1.77;;;18.20;99.90;;;;;;5111445;28;20206;-32
2022/10/26 08:57:53;;;;;;;6.20;2.17;;;18.20;99.90;;;;;;5111025;28;20558;-33
2022/10/26 09:00:24;;;;;;;9.87;2.00;;;18.30;99.90;;;;;;5110995;28;20229;-33
2022/10/26 09:02:54;;;;;;;5.10;1.93;;;18.30;99.90;;;;;;5110992;28;20213;-32
2022/10/26 09:05:42;;;;;;;6.93;2.33;;;18.30;99.90;;;;;;5110108;28;20199;-33
2022/10/26 09:08:38;;;;;;;4.73;1.90;;;18.50;99.90;;;;;;5110999;28;20607;-32
2022/10/26 09:11:24;;;;;;;4.75;1.90;;;18.50;99.90;;;;;;5109480;28;20280;-33
2022/10/26 09:14:37;;;;;;;6.13;1.70;;;18.50;99.90;;;;;;5110833;28;20692;-33
2022/10/26 09:17:29;;;;;;;4.13;1.73;;;18.60;99.90;;;;;;5100532;28;20209;-33
2022/10/26 09:20:34;;;;;;;4.50;1.63;;;18.70;99.90;;;;;;5110516;28;20242;-33
2022/10/26 09:23:23;;;;;;;3.20;1.20;;;18.70;99.90;;;;;;5110545;28;20255;-32
2022/10/26 09:25:59;;;;;;;5.80;1.60;;;18.80;99.90;;;;;;5110461;28;20595;-33
2022/10/26 09:28:33;;;;;;;1.80;1.20;;;18.80;99.90;;;;;;5110616;28;20236;-33
2022/10/26 09:31:02;;;;;;;8.18;1.73;;;18.90;99.90;;;;;;5110595;28;20202;-33
2022/10/26 09:33:34;;;;;;;4.03;1.40;;;18.90;99.90;;;;;;5110457;28;20252;-33
2022/10/26 09:36:07;;;;;;;6.53;1.15;;;19.00;99.90;;;;;;5110406;28;20277;-33
2022/10/26 09:39:02;;;;;;;4.10;1.20;;;19.10;99.90;;;;;;5110475;28;20221;-33
2022/10/26 09:41:38;;;;;;;2.15;1.40;;;19.10;99.90;;;;;;5110418;28;20241;-33
2022/10/26 09:44:23;;;;;;;4.13;1.30;;;19.20;99.90;;;;;;5110235;28;20300;-33
2022/10/26 09:47:20;;;;;;;1.75;0.90;;;19.20;99.90;;;;;;5110050;28;20759;-33
2022/10/26 09:49:59;;;;;;;2.70;1.20;;;19.30;99.90;;;;;;5109945;28;20569;-32
2022/10/26 09:52:27;;;;;;;5.60;1.43;;;19.40;99.90;;;;;;5109858;28;20568;-32
2022/10/26 09:54:56;;;;;;;10.07;1.47;;;19.40;99.90;;;;;;5110211;28;20206;-33
2022/10/26 09:57:24;;;;;;;5.00;1.00;;;19.40;99.90;;;;;;5109666;28;20200;-33
2022/10/26 09:59:54;;;;;;;3.33;1.20;;;19.50;99.90;;;;;;5109650;28;20214;-33
2022/10/26 10:02:42;;;;;;;7.93;1.85;;;19.60;99.90;;;;;;5109200;28;20206;-33
2022/10/26 10:05:30;;;;;;;4.90;1.38;;;19.60;99.90;;;;;;5109665;28;20210;-32
2022/10/26 10:08:25;;;;;;;5.53;1.30;;;19.70;99.90;;;;;;5109061;28;20198;-33
2022/10/26 10:11:00;;;;;;;4.40;1.30;;;19.70;99.90;;;;;;5108380;28;20714;-33
2022/10/26 10:13:31;;;;;;;3.42;1.38;;;19.70;99.90;;;;;;5109691;28;20202;-33
2022/10/26 10:16:06;;;;;;;3.20;1.30;;;19.80;99.90;;;;;;5108588;28;20209;-32
2022/10/26 10:18:35;;;;;;;3.00;1.40;;;19.70;99.90;;;;;;5091088;28;20202;-33
2022/10/26 10:21:04;;;;;;;4.20;1.17;;;19.70;99.90;;;;;;5109001;28;20241;-33
2022/10/26 10:23:51;;;;;;;7.72;1.58;;;19.80;99.90;;;;;;5109197;28;20247;-32
2022/10/26 10:26:18;;;;;;;5.40;1.70;;;19.80;99.90;;;;;;5109206;28;20203;-32
2022/10/26 10:28:57;;;;;;;8.15;1.13;;;19.90;99.90;;;;;;5108694;28;20198;-33
2022/10/26 10:31:30;;;;;;;3.53;1.38;;;19.90;99.90;;;;;;5108798;28;20209;-33
2022/10/26 10:34:13;;;;;;;4.28;1.52;;;20.00;99.90;;;;;;5109040;28;20570;-33
2022/10/26 10:36:40;;;;;;;3.33;1.13;;;20.00;99.90;;;;;;5108855;28;20664;-33
2022/10/26 10:39:49;;;;;;;4.28;1.40;;;20.00;99.90;;;;;;5108855;28;20289;-33
2022/10/26 10:42:22;;;;;;;3.88;1.30;;;20.10;99.90;;;;;;5107623;28;20209;-33
2022/10/26 10:44:52;;;;;;;5.13;1.48;;;20.10;99.90;;;;;;5109439;28;20194;-33
2022/10/26 10:47:28;;;;;;;2.45;1.10;;;20.20;99.90;;;;;;5091075;28;20197;-32
2022/10/26 10:50:18;;;;;;;6.88;1.60;;;20.20;99.90;;;;;;5108506;28;20206;-32
2022/10/26 10:52:46;;;;;;;3.85;1.38;;;20.30;99.90;;;;;;5107346;28;20702;-33
2022/10/26 10:55:13;;;;;;;9.10;1.55;;;20.20;99.90;;;;;;5108698;28;20672;-33
2022/10/26 10:57:59;;;;;;;3.58;1.20;;;20.30;99.90;;;;;;5108396;28;20209;-32
2022/10/26 11:00:26;;;;;;;4.13;1.42;;;20.30;99.90;;;;;;5108638;28;20711;-32
2022/10/26 11:03:23;;;;;;;3.25;1.15;;;20.30;99.90;;;;;;5108550;28;20301;-32
2022/10/26 11:05:52;;;;;;;3.20;1.52;;;20.30;99.90;;;;;;5108719;28;20210;-32
2022/10/26 11:08:49;;;;;;;4.23;1.33;;;20.30;99.90;;;;;;5108501;28;20948;-32
2022/10/26 11:11:26;;;;;;;4.43;1.50;;;20.40;99.90;;;;;;5108494;28;20193;-33
2022/10/26 11:14:01;;;;;;;6.30;1.60;;;20.40;99.90;;;;;;5109107;28;20200;-33
2022/10/26 11:16:39;;;;;;;4.45;1.30;;;20.40;99.90;;;;;;5108219;28;20218;-33
2022/10/26 11:19:31;;;;;;;4.60;1.52;;;20.40;99.90;;;;;;5108548;28;20238;-33
2022/10/26 11:21:59;;;;;;;4.68;1.05;;;20.40;99.90;;;;;;5108385;28;20700;-32
2022/10/26 11:24:41;;;;;;;1.60;1.10;;;20.50;99.90;;;;;;5108967;28;20268;-33
2022/10/26 11:27:25;;;;;;;1.92;1.15;;;20.40;99.90;;;;;;5109528;28;20206;-33
2022/10/26 11:30:02;;;;;;;2.65;1.20;;;20.50;99.90;;;;;;5112685;28;20185;-33
2022/10/26 11:32:43;;;;;;;4.15;1.40;;;20.50;99.90;;;;;;5111761;28;20208;-32
2022/10/26 11:35:18;;;;;;;8.13;1.40;;;20.50;99.90;;;;;;5110638;28;20190;-32
2022/10/26 11:37:55;;;;;;;2.88;1.00;;;20.50;99.90;;;;;;5111926;28;20185;-33
2022/10/26 11:40:33;;;;;;;4.00;1.20;;;20.50;99.90;;;;;;5111988;28;20248;-33
2022/10/26 11:43:40;;;;;;;2.35;1.10;;;20.50;99.90;;;;;;5112181;28;20179;-33
2022/10/26 11:46:16;;;;;;;4.63;1.35;;;20.60;99.90;;;;;;5112376;28;20601;-33
2022/10/26 11:49:03;;;;;;;6.32;1.42;;;20.60;99.90;;;;;;5112139;28;20239;-32
2022/10/26 11:51:57;;;;;;;3.38;1.45;;;20.60;99.90;;;;;;5112526;28;20240;-33
2022/10/26 11:54:32;;;;;;;3.30;0.88;;;20.70;99.90;;;;;;5112015;28;20214;-33
2022/10/26 11:57:03;;;;;;;5.10;1.13;;;20.70;99.90;;;;;;5112085;28;20198;-33
2022/10/26 11:59:41;;;;;;;4.88;1.35;;;20.70;99.90;;;;;;5110524;28;20285;-33
2022/10/26 12:02:17;;;;;;;3.17;1.40;;;20.70;99.90;;;;;;5112033;28;20642;-33
2022/10/26 12:04:50;;;;;;;4.43;1.50;;;20.70;99.90;;;;;;5111916;28;20657;-32
2022/10/26 12:07:31;;;;;;;4.28;1.67;;;20.80;99.90;;;;;;5110534;28;20216;-32
2022/10/26 12:10:01;;;;;;;4.03;1.17;;;20.80;99.90;;;;;;5111893;28;20231;-32
2022/10/26 12:12:50;;;;;;;5.03;1.05;;;20.80;99.90;;;;;;5111568;28;20237;-33
2022/10/26 12:15:35;;;;;;;4.30;1.25;;;20.90;99.90;;;;;;5110501;28;20277;-33
2022/10/26 12:18:38;;;;;;;4.30;1.85;;;20.90;99.90;;;;;;5111950;28;20765;-32
2022/10/26 12:21:30;;;;;;;5.20;1.40;;;20.90;99.90;;;;;;5111568;28;20305;-33
2022/10/26 12:23:59;;;;;;;4.63;1.15;;;20.90;99.90;;;;;;5111827;28;20190;-32
2022/10/26 12:26:26;;;;;;;2.33;1.08;;;20.90;99.90;;;;;;5111453;28;20225;-32
2022/10/26 12:29:02;;;;;;;2.05;0.98;;;21.00;99.90;;;;;;5111419;28;20202;-32
2022/10/26 12:31:35;;;;;;;1.92;0.90;;;21.00;99.90;;;;;;5111038;28;20549;-34
2022/10/26 12:34:14;;;;;;;2.33;1.00;;;21.00;99.90;;;;;;5111095;28;20613;-33
2022/10/26 12:36:56;;;;;;;2.92;1.05;;;21.10;99.90;;;;;;5111692;28;20696;-33
2022/10/26 12:39:40;;;;;;;3.53;1.00;;;21.10;99.90;;;;;;5110230;28;20194;-32
2022/10/26 12:42:07;;;;;;;4.47;1.35;;;21.10;99.90;;;;;;5111102;28;20605;-33
2022/10/26 12:44:40;;;;;;;4.93;1.13;;;21.10;99.90;;;;;;5110920;28;20243;-33
2022/10/26 12:47:09;;;;;;;5.32;0.93;;;21.10;99.90;;;;;;5110791;28;20661;-33
2022/10/26 12:50:08;;;;;;;3.63;1.08;;;21.10;99.90;;;;;;5111014;28;20270;-33
2022/10/26 12:52:43;;;;;;;3.53;0.95;;;21.10;99.90;;;;;;5110556;28;20197;-32
2022/10/26 12:55:28;;;;;;;5.00;1.42;;;21.10;99.90;;;;;;5110857;28;20218;-33
2022/10/26 12:58:13;;;;;;;3.40;0.95;;;21.10;99.90;;;;;;5111005;28;20194;-33
2022/10/26 13:01:06;;;;;;;6.45;1.58;;;21.20;99.90;;;;;;5110772;28;20716;-33
2022/10/26 13:03:52;;;;;;;7.57;1.27;;;21.20;99.90;;;;;;5110066;28;20243;-33
2022/10/26 13:06:19;;;;;;;2.38;1.27;;;21.20;99.90;;;;;;5110792;28;20282;-33
2022/10/26 13:08:52;;;;;;;2.90;1.02;;;21.20;99.90;;;;;;5110719;28;20202;-33
2022/10/26 13:11:42;;;;;;;3.65;1.17;;;21.20;99.90;;;;;;5110642;28;20259;-33
2022/10/26 13:14:24;;;;;;;3.28;1.75;;;21.30;99.90;;;;;;5110528;28;20696;-32
2022/10/26 13:16:52;;;;;;;2.55;1.20;;;21.30;99.90;;;;;;5110473;28;20190;-32
2022/10/26 13:19:31;;;;;;;2.45;1.10;;;21.30;99.90;;;;;;5108887;28;20233;-32
2022/10/26 13:22:01;;;;;;;2.67;1.00;;;21.30;99.90;;;;;;5110219;28;20317;-32
2022/10/26 13:24:33;;;;;;;3.08;0.98;;;21.30;99.90;;;;;;5110408;28;20285;-33
2022/10/26 13:27:07;;;;;;;2.47;0.90;;;21.30;99.90;;;;;;5110337;28;20221;-33